Huntersville, Minnesota
Current Conditions -  °F | °C
As of 4:53 PM on Wednesday 22 Oct 2014 (Local Time) from KPKD Reporting Station
Clear Clear  
Wind Chill: 59°   Ceiling: Unl
Heat Index: 59°   Visibility: 10mi
Dew Point: 43°   Wind: 20mph
Humidity: 55%   Direction: 170°S
Pressure: 29.92"   Gusts: 25mph
Location:  46.7591°N, 94.9748°W
Report Text: KPKD 222153Z AUTO 17017G22KT 10SM CLR 15/06 A2992 RMK AO2 PK WND 17027/2135 SLP138 T01500061 TSNO
Loading
Personal Weather Stations






























Interactive Weather Map
Tropical Storm Tracking
New forecast layout! Learn more

10-Day Weather Forecast

Advertisements
Track Severe Weather on mobile